createdAt,value
2023-04-15T00:01:33.846Z,99.91
2023-04-15T00:04:01.883Z,99.90
2023-04-15T00:06:29.542Z,100.00
2023-04-15T00:08:57.098Z,100.00
2023-04-15T00:11:25.070Z,100.00
2023-04-15T00:13:54.373Z,100.00
2023-04-15T00:16:21.951Z,100.00
2023-04-15T00:18:49.432Z,100.00
2023-04-15T00:21:17.128Z,100.00
2023-04-15T00:23:45.092Z,100.00
2023-04-15T00:26:13.287Z,100.00
2023-04-15T00:28:40.898Z,100.00
2023-04-15T00:31:09.900Z,100.00
2023-04-15T00:33:37.692Z,100.00
2023-04-15T00:36:05.935Z,100.00
2023-04-15T00:38:33.586Z,100.00
2023-04-15T00:41:01.183Z,100.00
2023-04-15T00:43:29.596Z,100.00
2023-04-15T00:45:59.787Z,100.00
2023-04-15T00:48:29.311Z,100.00
2023-04-15T00:50:56.766Z,100.00
2023-04-15T00:53:24.405Z,100.00
2023-04-15T00:55:52.092Z,100.00
2023-04-15T00:58:20.013Z,100.00
2023-04-15T01:00:47.753Z,100.00
2023-04-15T01:03:15.511Z,100.00
2023-04-15T01:05:44.701Z,100.00
2023-04-15T01:08:12.275Z,100.00
2023-04-15T01:10:40.403Z,100.00
2023-04-15T01:13:08.170Z,100.00
2023-04-15T01:15:37.103Z,100.00
2023-04-15T01:18:04.843Z,100.00
2023-04-15T01:20:32.770Z,100.00
2023-04-15T01:23:02.167Z,100.00
2023-04-15T01:25:34.697Z,100.00
2023-04-15T01:28:03.199Z,100.00
2023-04-15T01:30:34.600Z,100.00
2023-04-15T01:33:02.639Z,100.00
2023-04-15T01:35:30.248Z,100.00
2023-04-15T01:38:05.176Z,100.00
2023-04-15T01:40:34.211Z,100.00
2023-04-15T01:43:02.090Z,100.00
2023-04-15T01:45:29.855Z,100.00
2023-04-15T01:47:57.537Z,100.00
2023-04-15T01:50:25.750Z,100.00
2023-04-15T01:52:53.449Z,100.00
2023-04-15T01:55:21.745Z,100.00
2023-04-15T01:57:50.570Z,100.00
2023-04-15T02:00:18.167Z,100.00
2023-04-15T02:02:45.974Z,100.00
2023-04-15T02:05:13.503Z,100.00
2023-04-15T02:07:40.983Z,100.00
2023-04-15T02:10:09.303Z,100.00
2023-04-15T02:12:36.851Z,100.00
2023-04-15T02:15:07.131Z,100.00
2023-04-15T02:17:36.342Z,100.00
2023-04-15T02:20:05.839Z,100.00
2023-04-15T02:22:33.421Z,100.00
2023-04-15T02:25:01.024Z,100.00
2023-04-15T02:27:29.182Z,100.00
2023-04-15T02:29:56.818Z,100.00
2023-04-15T02:32:26.225Z,100.00
2023-04-15T02:34:53.886Z,100.00
2023-04-15T02:37:21.917Z,100.00
2023-04-15T02:39:49.901Z,100.00
2023-04-15T02:42:17.484Z,100.00
2023-04-15T02:44:45.383Z,100.00
2023-04-15T02:47:12.882Z,100.00
2023-04-15T02:49:41.772Z,100.00
2023-04-15T02:52:09.934Z,100.00
2023-04-15T02:54:37.405Z,100.00
2023-04-15T02:57:06.665Z,100.00
2023-04-15T02:59:34.226Z,100.00
2023-04-15T03:02:01.760Z,100.00
2023-04-15T03:04:30.099Z,100.00
2023-04-15T03:06:59.008Z,100.00
2023-04-15T03:09:26.535Z,100.00
2023-04-15T03:11:54.859Z,100.00
2023-04-15T03:14:22.818Z,100.00
2023-04-15T03:16:51.819Z,100.00
2023-04-15T03:19:19.418Z,100.00
2023-04-15T03:21:46.967Z,100.00
2023-04-15T03:24:15.860Z,100.00
2023-04-15T03:26:43.417Z,100.00
2023-04-15T03:29:11.180Z,100.00
2023-04-15T03:31:38.699Z,100.00
2023-04-15T03:34:06.557Z,100.00
2023-04-15T03:36:34.132Z,100.00
2023-04-15T03:39:02.551Z,100.00
2023-04-15T03:41:32.764Z,100.00
2023-04-15T03:44:00.472Z,100.00
2023-04-15T03:46:28.110Z,100.00
2023-04-15T03:48:56.404Z,100.00
2023-04-15T03:51:24.246Z,100.00
2023-04-15T03:53:51.792Z,100.00
2023-04-15T03:56:19.372Z,100.00
2023-04-15T03:58:48.267Z,100.00
2023-04-15T04:01:16.457Z,100.00
2023-04-15T04:03:44.312Z,100.00
2023-04-15T04:06:12.736Z,100.00
2023-04-15T04:08:40.540Z,100.00
2023-04-15T04:11:08.398Z,100.00
2023-04-15T04:13:35.950Z,100.00
2023-04-15T04:16:05.580Z,100.00
2023-04-15T04:18:33.491Z,100.00
2023-04-15T04:21:02.200Z,100.00
2023-04-15T04:23:29.975Z,100.00
2023-04-15T04:25:57.614Z,100.00
2023-04-15T04:28:25.157Z,100.00
2023-04-15T04:30:52.700Z,100.00
2023-04-15T04:33:21.650Z,100.00
2023-04-15T04:35:49.157Z,100.00
2023-04-15T04:38:16.740Z,100.00
2023-04-15T04:40:44.480Z,100.00
2023-04-15T04:43:12.198Z,100.00
2023-04-15T04:45:39.779Z,100.00
2023-04-15T04:48:08.728Z,100.00
2023-04-15T04:50:38.251Z,100.00
2023-04-15T04:53:07.304Z,100.00
2023-04-15T04:55:36.803Z,100.00
2023-04-15T04:58:04.648Z,100.00
2023-04-15T05:00:32.520Z,100.00
2023-04-15T05:03:00.561Z,100.00
2023-04-15T05:05:28.331Z,100.00
2023-04-15T05:07:57.341Z,100.00
2023-04-15T05:10:24.870Z,100.00
2023-04-15T05:12:52.842Z,100.00
2023-04-15T05:15:20.466Z,100.00
2023-04-15T05:17:47.997Z,100.00
2023-04-15T05:20:15.614Z,100.00
2023-04-15T05:22:43.384Z,100.00
2023-04-15T05:25:12.747Z,100.00
2023-04-15T05:27:40.466Z,100.00
2023-04-15T05:30:09.345Z,100.00
2023-04-15T05:32:37.564Z,100.00
2023-04-15T05:35:05.554Z,100.00
2023-04-15T05:37:33.120Z,100.00
2023-04-15T05:40:00.929Z,100.00
2023-04-15T05:42:30.362Z,100.00
2023-04-15T05:44:58.249Z,100.00
2023-04-15T05:47:25.808Z,100.00
2023-04-15T05:49:53.305Z,100.00
2023-04-15T05:52:21.226Z,100.00
2023-04-15T05:54:48.720Z,100.00
2023-04-15T05:57:16.152Z,100.00
2023-04-15T05:59:44.962Z,100.00
2023-04-15T06:02:13.387Z,100.00
2023-04-15T06:04:41.073Z,100.00
2023-04-15T06:07:08.713Z,100.00
2023-04-15T06:09:36.752Z,100.00
2023-04-15T06:12:04.680Z,100.00
2023-04-15T06:14:32.242Z,100.00
2023-04-15T06:17:01.099Z,100.00
2023-04-15T06:19:28.538Z,100.00
2023-04-15T06:21:56.154Z,100.00
2023-04-15T06:24:23.677Z,99.66
2023-04-15T06:26:51.163Z,98.65
2023-04-15T06:29:18.695Z,96.90
2023-04-15T06:31:48.017Z,98.80
2023-04-15T06:34:16.987Z,98.72
2023-04-15T06:36:44.449Z,94.20
2023-04-15T06:39:12.192Z,92.49
2023-04-15T06:41:39.797Z,95.90
2023-04-15T06:44:08.046Z,92.03
2023-04-15T06:46:35.515Z,93.12
2023-04-15T06:49:03.769Z,93.45
2023-04-15T06:51:32.817Z,93.30
2023-04-15T06:54:00.280Z,95.65
2023-04-15T06:56:27.701Z,95.83
2023-04-15T06:58:55.145Z,94.89
2023-04-15T07:01:23.153Z,95.11
2023-04-15T07:03:50.686Z,94.24
2023-04-15T07:06:18.246Z,93.41
2023-04-15T07:08:47.018Z,91.99
2023-04-15T07:11:15.069Z,88.43
2023-04-15T07:13:42.517Z,84.99
2023-04-15T07:16:09.960Z,82.44
2023-04-15T07:18:37.520Z,78.85
2023-04-15T07:21:05.507Z,76.84
2023-04-15T07:23:32.984Z,77.97
2023-04-15T07:26:02.275Z,76.48
2023-04-15T07:28:29.709Z,76.00
2023-04-15T07:30:57.990Z,74.89
2023-04-15T07:33:25.485Z,75.48
2023-04-15T07:35:53.070Z,74.97
2023-04-15T07:38:20.589Z,74.62
2023-04-15T07:40:48.331Z,74.17
2023-04-15T07:43:17.382Z,74.14
2023-04-15T07:45:44.982Z,72.80
2023-04-15T07:48:12.501Z,72.30
2023-04-15T07:50:40.249Z,74.39
2023-04-15T07:53:08.180Z,74.04
2023-04-15T07:55:35.710Z,73.29
2023-04-15T07:58:03.131Z,70.37
2023-04-15T08:00:32.107Z,70.19
2023-04-15T08:02:59.827Z,71.10
2023-04-15T08:05:27.476Z,71.67
2023-04-15T08:07:54.910Z,70.21
2023-04-15T08:10:22.622Z,71.28
2023-04-15T08:12:50.662Z,70.45
2023-04-15T08:15:18.311Z,69.03
2023-04-15T08:17:47.179Z,69.36
2023-04-15T08:20:14.649Z,70.43
2023-04-15T08:22:42.541Z,69.62
2023-04-15T08:25:10.675Z,69.64
2023-04-15T08:27:38.291Z,68.06
2023-04-15T08:30:07.289Z,65.79
2023-04-15T08:32:34.809Z,67.65
2023-04-15T08:35:03.787Z,67.00
2023-04-15T08:37:31.267Z,66.72
2023-04-15T08:39:58.864Z,66.82
2023-04-15T08:42:33.469Z,67.99
2023-04-15T08:45:02.362Z,68.23
2023-04-15T08:47:32.768Z,69.10
2023-04-15T08:50:00.680Z,69.97
2023-04-15T08:52:32.256Z,69.31
2023-04-15T08:55:02.601Z,70.82
2023-04-15T08:57:30.633Z,71.78
2023-04-15T08:59:58.223Z,72.26
2023-04-15T09:02:27.607Z,70.83
2023-04-15T09:04:55.318Z,71.22
2023-04-15T09:07:23.796Z,71.86
2023-04-15T09:09:52.840Z,71.13
2023-04-15T09:12:20.294Z,69.37
2023-04-15T09:14:48.197Z,68.21
2023-04-15T09:17:20.449Z,67.60
2023-04-15T09:19:48.245Z,67.89
2023-04-15T09:22:16.550Z,67.88
2023-04-15T09:24:44.041Z,67.57
2023-04-15T09:27:18.318Z,66.05
2023-04-15T09:29:45.986Z,67.48
2023-04-15T09:32:14.855Z,65.73
2023-04-15T09:34:44.395Z,65.46
2023-04-15T09:37:24.236Z,66.52
2023-04-15T09:39:56.324Z,67.64
2023-04-15T09:42:26.601Z,66.52
2023-04-15T09:44:54.059Z,67.22
2023-04-15T09:47:31.541Z,67.13
2023-04-15T09:49:59.923Z,68.32
2023-04-15T09:52:28.548Z,66.62
2023-04-15T09:54:58.396Z,65.20
2023-04-15T09:57:35.597Z,65.13
2023-04-15T10:00:03.696Z,66.25
2023-04-15T10:02:31.963Z,66.23
2023-04-15T10:05:00.685Z,64.28
2023-04-15T10:07:28.632Z,66.09
2023-04-15T10:09:57.862Z,67.74
2023-04-15T10:12:27.172Z,70.01
2023-04-15T10:15:00.124Z,69.50
2023-04-15T10:17:31.738Z,70.18
2023-04-15T10:20:01.631Z,69.30
2023-04-15T10:22:30.029Z,67.69
2023-04-15T10:24:57.997Z,69.76
2023-04-15T10:27:28.064Z,70.93
2023-04-15T10:29:55.733Z,71.86
2023-04-15T10:32:24.886Z,74.48
2023-04-15T10:34:54.636Z,74.77
2023-04-15T10:37:23.277Z,74.29
2023-04-15T10:39:51.006Z,75.42
2023-04-15T10:42:20.135Z,73.43
2023-04-15T10:44:52.821Z,74.24
2023-04-15T10:47:22.230Z,74.65
2023-04-15T10:49:51.110Z,75.03
2023-04-15T10:52:23.943Z,73.95
2023-04-15T10:54:51.516Z,71.41
2023-04-15T10:57:23.646Z,70.62
2023-04-15T11:00:12.843Z,69.23
2023-04-15T11:02:45.824Z,67.43
2023-04-15T11:05:14.308Z,64.89
2023-04-15T11:07:49.541Z,62.42
2023-04-15T11:10:53.904Z,64.27
2023-04-15T11:13:25.130Z,63.15
2023-04-15T11:15:58.356Z,63.44
2023-04-15T11:18:28.195Z,66.93
2023-04-15T11:20:57.876Z,67.23
2023-04-15T11:23:34.000Z,66.49
2023-04-15T11:26:02.418Z,67.94
2023-04-15T11:28:32.025Z,68.26
2023-04-15T11:31:08.452Z,70.05
2023-04-15T11:33:36.192Z,67.99
2023-04-15T11:36:04.487Z,68.91
2023-04-15T11:38:32.381Z,66.14
2023-04-15T11:41:00.369Z,67.66
2023-04-15T11:43:27.869Z,66.38
2023-04-15T11:45:56.946Z,68.24
2023-04-15T11:48:27.677Z,66.97
2023-04-15T11:50:56.948Z,66.04
2023-04-15T11:53:25.322Z,67.79
2023-04-15T11:55:54.162Z,66.89
2023-04-15T11:58:24.174Z,68.17
2023-04-15T12:00:53.962Z,67.62
2023-04-15T12:03:26.570Z,67.93
2023-04-15T12:06:21.957Z,68.14
2023-04-15T12:08:50.985Z,66.95
2023-04-15T12:11:18.673Z,65.72
2023-04-15T12:13:47.155Z,66.40
2023-04-15T12:16:17.468Z,64.69
2023-04-15T12:18:48.171Z,66.23
2023-04-15T12:21:15.807Z,65.04
2023-04-15T12:23:49.672Z,66.86
2023-04-15T12:26:17.416Z,67.28
2023-04-15T12:28:45.059Z,65.87
2023-04-15T12:31:13.447Z,66.86
2023-04-15T12:33:41.074Z,65.78
2023-04-15T12:36:10.248Z,66.01
2023-04-15T12:38:37.760Z,68.25
2023-04-15T12:41:05.290Z,67.90
2023-04-15T12:43:32.706Z,68.42
2023-04-15T12:46:00.157Z,68.54
2023-04-15T12:48:27.607Z,67.53
2023-04-15T12:50:55.049Z,68.17
2023-04-15T12:53:23.876Z,69.91
2023-04-15T12:55:51.501Z,69.78
2023-04-15T12:58:19.467Z,67.29
2023-04-15T13:00:47.334Z,67.28
2023-04-15T13:03:15.815Z,69.09
2023-04-15T13:05:44.047Z,69.44
2023-04-15T13:08:11.576Z,68.03
2023-04-15T13:10:42.310Z,69.13
2023-04-15T13:13:10.028Z,68.22
2023-04-15T13:15:37.970Z,69.66
2023-04-15T13:18:07.639Z,70.35
2023-04-15T13:20:35.320Z,70.36
2023-04-15T13:23:02.958Z,72.41
2023-04-15T13:25:30.700Z,73.44
2023-04-15T13:28:01.126Z,73.82
2023-04-15T13:30:28.816Z,74.91
2023-04-15T13:32:56.283Z,74.76
2023-04-15T13:35:23.737Z,74.64
2023-04-15T13:37:51.375Z,75.31
2023-04-15T13:40:18.798Z,75.63
2023-04-15T13:42:47.011Z,73.90
2023-04-15T13:45:16.127Z,73.82
2023-04-15T13:47:43.641Z,74.64
2023-04-15T13:50:11.743Z,74.37
2023-04-15T13:52:39.393Z,74.88
2023-04-15T13:55:19.339Z,75.25
2023-04-15T13:57:48.248Z,76.09
2023-04-15T14:00:17.732Z,76.77
2023-04-15T14:02:45.820Z,76.82
2023-04-15T14:05:13.337Z,78.96
2023-04-15T14:07:41.286Z,79.42
2023-04-15T14:10:09.617Z,80.38
2023-04-15T14:12:37.124Z,81.18
2023-04-15T14:15:05.204Z,81.25
2023-04-15T14:17:34.539Z,80.63
2023-04-15T14:20:02.124Z,81.86
2023-04-15T14:22:29.703Z,81.50
2023-04-15T14:24:57.201Z,82.22
2023-04-15T14:27:24.656Z,81.41
2023-04-15T14:29:53.410Z,81.60
2023-04-15T14:32:20.968Z,81.60
2023-04-15T14:34:49.808Z,82.00
2023-04-15T14:37:17.254Z,83.10
2023-04-15T14:39:44.667Z,84.39
2023-04-15T14:42:12.126Z,85.01
2023-04-15T14:44:39.642Z,84.65
2023-04-15T14:47:07.165Z,85.38
2023-04-15T14:49:34.627Z,84.59
2023-04-15T14:52:04.206Z,84.63
2023-04-15T14:54:34.741Z,84.04
2023-04-15T14:57:02.662Z,83.49
2023-04-15T14:59:30.379Z,84.24
2023-04-15T15:01:58.013Z,82.32
2023-04-15T15:04:25.866Z,82.19
2023-04-15T15:06:53.396Z,83.43
2023-04-15T15:09:23.766Z,83.85
2023-04-15T15:11:51.650Z,84.13
2023-04-15T15:14:21.661Z,84.97
2023-04-15T15:16:49.632Z,85.58
2023-04-15T15:19:17.162Z,87.00
2023-04-15T15:21:44.591Z,87.60
2023-04-15T15:24:12.031Z,88.62
2023-04-15T15:26:41.020Z,88.98
2023-04-15T15:29:08.448Z,88.88
2023-04-15T15:31:36.272Z,88.52
2023-04-15T15:34:05.521Z,88.55
2023-04-15T15:36:33.012Z,89.14
2023-04-15T15:39:00.565Z,88.69
2023-04-15T15:41:27.996Z,86.91
2023-04-15T15:43:56.917Z,85.99
2023-04-15T15:46:24.946Z,85.84
2023-04-15T15:48:52.431Z,86.01
2023-04-15T15:51:19.918Z,85.28
2023-04-15T15:53:47.450Z,85.81
2023-04-15T15:56:14.929Z,85.88
2023-04-15T15:58:43.780Z,85.93
2023-04-15T16:01:12.818Z,85.59
2023-04-15T16:03:40.736Z,85.41
2023-04-15T16:06:08.367Z,86.44
2023-04-15T16:08:35.928Z,86.07
2023-04-15T16:11:03.413Z,86.11
2023-04-15T16:13:30.922Z,85.98
2023-04-15T16:15:58.426Z,86.35
2023-04-15T16:18:35.447Z,85.19
2023-04-15T16:21:03.021Z,85.31
2023-04-15T16:23:30.839Z,84.54
2023-04-15T16:25:58.360Z,83.92
2023-04-15T16:28:27.131Z,83.86
2023-04-15T16:30:55.476Z,83.76
2023-04-15T16:33:22.961Z,84.07
2023-04-15T16:35:51.837Z,84.01
2023-04-15T16:38:19.275Z,84.22
2023-04-15T16:40:46.755Z,85.44
2023-04-15T16:43:14.939Z,85.03
2023-04-15T16:45:51.202Z,86.98
2023-04-15T16:48:19.197Z,87.19
2023-04-15T16:50:46.984Z,88.06
2023-04-15T16:53:16.500Z,88.40
2023-04-15T16:55:44.021Z,88.31
2023-04-15T16:58:11.515Z,87.44
2023-04-15T17:00:39.014Z,87.26
2023-04-15T17:03:07.027Z,87.48
2023-04-15T17:05:34.687Z,88.04
2023-04-15T17:08:02.240Z,87.83
2023-04-15T17:10:31.553Z,88.47
2023-04-15T17:12:59.744Z,89.66
2023-04-15T17:15:27.649Z,90.60
2023-04-15T17:17:55.648Z,90.78
2023-04-15T17:20:23.242Z,91.29
2023-04-15T17:22:50.937Z,91.47
2023-04-15T17:25:19.324Z,92.09
2023-04-15T17:27:48.143Z,92.61
2023-04-15T17:30:15.613Z,92.24
2023-04-15T17:32:43.192Z,92.40
2023-04-15T17:35:11.204Z,92.98
2023-04-15T17:37:38.924Z,93.99
2023-04-15T17:40:17.045Z,94.50
2023-04-15T17:42:44.822Z,95.19
2023-04-15T17:45:13.815Z,95.37
2023-04-15T17:47:41.467Z,95.56
2023-04-15T17:50:09.872Z,95.83
2023-04-15T17:52:37.336Z,95.87
2023-04-15T17:55:05.195Z,96.31
2023-04-15T17:57:32.756Z,97.42
2023-04-15T18:00:00.304Z,98.63
2023-04-15T18:02:29.349Z,99.18
2023-04-15T18:04:57.210Z,100.00
2023-04-15T18:07:24.883Z,100.00
2023-04-15T18:09:55.730Z,100.00
2023-04-15T18:12:23.228Z,100.00
2023-04-15T18:14:50.701Z,100.00
2023-04-15T18:17:18.886Z,100.00
2023-04-15T18:19:48.359Z,100.00
2023-04-15T18:22:15.975Z,100.00
2023-04-15T18:24:43.483Z,100.00
2023-04-15T18:27:11.071Z,100.00
2023-04-15T18:29:38.734Z,100.00
2023-04-15T18:32:06.354Z,100.00
2023-04-15T18:34:34.135Z,100.00
2023-04-15T18:37:03.385Z,100.00
2023-04-15T18:39:30.963Z,100.00
2023-04-15T18:42:00.234Z,100.00
2023-04-15T18:44:28.609Z,100.00
2023-04-15T18:46:56.160Z,100.00
2023-04-15T18:49:23.692Z,100.00
2023-04-15T18:51:51.272Z,100.00
2023-04-15T18:54:20.169Z,100.00
2023-04-15T18:56:49.016Z,100.00
2023-04-15T18:59:29.325Z,100.00
2023-04-15T19:01:59.246Z,100.00
2023-04-15T19:04:28.829Z,100.00
2023-04-15T19:06:57.163Z,100.00
2023-04-15T19:09:26.692Z,100.00
2023-04-15T19:11:54.313Z,100.00
2023-04-15T19:14:21.964Z,100.00
2023-04-15T19:16:49.490Z,100.00
2023-04-15T19:19:17.034Z,100.00
2023-04-15T19:21:45.418Z,100.00
2023-04-15T19:24:13.026Z,100.00
2023-04-15T19:26:41.962Z,100.00
2023-04-15T19:29:09.451Z,100.00
2023-04-15T19:31:37.054Z,100.00
2023-04-15T19:34:04.584Z,100.00
2023-04-15T19:36:33.187Z,100.00
2023-04-15T19:39:01.541Z,100.00
2023-04-15T19:41:32.230Z,100.00
2023-04-15T19:44:02.953Z,100.00
2023-04-15T19:46:30.647Z,100.00
2023-04-15T19:48:58.873Z,100.00
2023-04-15T19:51:28.679Z,100.00
2023-04-15T19:53:56.967Z,100.00
2023-04-15T19:56:25.555Z,100.00
2023-04-15T19:58:53.935Z,100.00
2023-04-15T20:01:23.505Z,100.00
2023-04-15T20:03:53.923Z,100.00
2023-04-15T20:06:22.405Z,100.00
2023-04-15T20:08:49.902Z,100.00
2023-04-15T20:11:17.654Z,100.00
2023-04-15T20:13:45.393Z,100.00
2023-04-15T20:16:13.306Z,100.00
2023-04-15T20:18:42.463Z,100.00
2023-04-15T20:21:10.198Z,100.00
2023-04-15T20:23:38.263Z,100.00
2023-04-15T20:26:06.378Z,100.00
2023-04-15T20:28:34.199Z,100.00
2023-04-15T20:31:02.491Z,100.00
2023-04-15T20:33:34.129Z,100.00
2023-04-15T20:36:04.169Z,100.00
2023-04-15T20:38:32.224Z,100.00
2023-04-15T20:41:00.300Z,100.00
2023-04-15T20:43:28.165Z,100.00
2023-04-15T20:45:58.745Z,100.00
2023-04-15T20:48:30.188Z,100.00
2023-04-15T20:50:59.459Z,100.00
2023-04-15T20:53:28.609Z,100.00
2023-04-15T20:55:56.400Z,100.00
2023-04-15T20:58:26.468Z,100.00
2023-04-15T21:00:55.458Z,100.00
2023-04-15T21:03:23.486Z,100.00
2023-04-15T21:05:51.264Z,100.00
2023-04-15T21:08:18.940Z,100.00
2023-04-15T21:10:47.945Z,100.00
2023-04-15T21:13:20.571Z,100.00
2023-04-15T21:15:50.159Z,100.00
2023-04-15T21:18:18.147Z,100.00
2023-04-15T21:20:46.512Z,100.00
2023-04-15T21:23:14.304Z,100.00
2023-04-15T21:25:42.030Z,100.00
2023-04-15T21:28:11.650Z,100.00
2023-04-15T21:30:39.141Z,100.00
2023-04-15T21:33:06.993Z,100.00
2023-04-15T21:35:34.589Z,100.00
2023-04-15T21:38:02.233Z,100.00
2023-04-15T21:40:29.931Z,100.00
2023-04-15T21:42:58.084Z,100.00
2023-04-15T21:45:27.686Z,100.00
2023-04-15T21:48:00.773Z,100.00
2023-04-15T21:50:37.326Z,100.00
2023-04-15T21:53:05.754Z,100.00
2023-04-15T21:55:33.190Z,100.00
2023-04-15T21:58:00.962Z,100.00
2023-04-15T22:00:30.054Z,100.00
2023-04-15T22:02:57.774Z,100.00
2023-04-15T22:05:26.358Z,100.00
2023-04-15T22:07:53.938Z,100.00
2023-04-15T22:10:21.789Z,100.00
2023-04-15T22:12:49.510Z,100.00
2023-04-15T22:15:17.683Z,100.00
2023-04-15T22:17:47.051Z,100.00
2023-04-15T22:20:14.891Z,100.00
2023-04-15T22:22:44.352Z,100.00
2023-04-15T22:25:12.767Z,100.00
2023-04-15T22:27:40.371Z,100.00
2023-04-15T22:30:09.103Z,100.00
2023-04-15T22:32:36.792Z,100.00
2023-04-15T22:35:08.394Z,100.00
2023-04-15T22:37:36.317Z,100.00
2023-04-15T22:40:04.324Z,100.00
2023-04-15T22:42:32.653Z,100.00
2023-04-15T22:45:00.844Z,100.00
2023-04-15T22:47:28.340Z,100.00
2023-04-15T22:49:55.945Z,100.00
2023-04-15T22:52:30.612Z,100.00
2023-04-15T22:54:58.872Z,100.00
2023-04-15T22:57:27.975Z,100.00
2023-04-15T22:59:56.012Z,100.00
2023-04-15T23:02:23.694Z,100.00
2023-04-15T23:04:51.356Z,100.00
2023-04-15T23:07:18.853Z,100.00
2023-04-15T23:09:47.701Z,100.00
2023-04-15T23:12:15.160Z,100.00
2023-04-15T23:14:42.684Z,100.00
2023-04-15T23:17:10.390Z,100.00
2023-04-15T23:19:38.166Z,100.00
2023-04-15T23:22:06.938Z,100.00
2023-04-15T23:24:34.513Z,100.00
2023-04-15T23:27:03.642Z,100.00
2023-04-15T23:29:31.806Z,100.00
2023-04-15T23:31:59.409Z,100.00
2023-04-15T23:34:27.048Z,100.00
2023-04-15T23:36:54.576Z,100.00
2023-04-15T23:39:22.077Z,100.00
2023-04-15T23:41:49.582Z,100.00
2023-04-15T23:44:18.455Z,100.00
2023-04-15T23:46:46.264Z,100.00
2023-04-15T23:49:13.767Z,100.00
2023-04-15T23:51:42.030Z,100.00
2023-04-15T23:54:09.592Z,100.00
2023-04-15T23:56:37.502Z,100.00
2023-04-15T23:59:04.989Z,100.00
